sensor_id;sensor_type;location;lat;lon;timestamp;pressure;altitude;pressure_sealevel;temperature;humidity
48563;BME280;34981;49.104;11.396;2024-03-02T00:02:16;96617.72;;;5.29;100.00
48563;BME280;34981;49.104;11.396;2024-03-02T00:04:44;96640.06;;;5.28;100.00
48563;BME280;34981;49.104;11.396;2024-03-02T00:07:11;96668.38;;;5.29;100.00
48563;BME280;34981;49.104;11.396;2024-03-02T00:09:40;96694.00;;;5.30;100.00
48563;BME280;34981;49.104;11.396;2024-03-02T00:12:08;96714.50;;;5.30;100.00
48563;BME280;34981;49.104;11.396;2024-03-02T00:14:35;96733.38;;;5.28;100.00
48563;BME280;34981;49.104;11.396;2024-03-02T00:17:02;96766.41;;;5.27;100.00
48563;BME280;34981;49.104;11.396;2024-03-02T00:19:29;96789.56;;;5.27;100.00
48563;BME280;34981;49.104;11.396;2024-03-02T00:21:56;96823.41;;;5.26;100.00
48563;BME280;34981;49.104;11.396;2024-03-02T00:24:36;96855.63;;;5.25;100.00
48563;BME280;34981;49.104;11.396;2024-03-02T00:27:03;96874.50;;;5.23;100.00
48563;BME280;34981;49.104;11.396;2024-03-02T00:29:31;96901.97;;;5.24;100.00
48563;BME280;34981;49.104;11.396;2024-03-02T00:31:58;96935.81;;;5.23;100.00
48563;BME280;34981;49.104;11.396;2024-03-02T00:34:25;96965.13;;;5.23;100.00
48563;BME280;34981;49.104;11.396;2024-03-02T00:36:52;96986.84;;;5.20;100.00
48563;BME280;34981;49.104;11.396;2024-03-02T00:39:19;97010.06;;;5.13;100.00
48563;BME280;34981;49.104;11.396;2024-03-02T00:41:46;97039.81;;;5.10;100.00
48563;BME280;34981;49.104;11.396;2024-03-02T00:44:15;97066.25;;;5.05;100.00
48563;BME280;34981;49.104;11.396;2024-03-02T00:46:42;97093.13;;;5.03;100.00
48563;BME280;34981;49.104;11.396;2024-03-02T00:51:38;97152.56;;;5.04;100.00
48563;BME280;34981;49.104;11.396;2024-03-02T00:54:07;97187.81;;;5.06;100.00
48563;BME280;34981;49.104;11.396;2024-03-02T00:56:34;97210.78;;;5.07;100.00
48563;BME280;34981;49.104;11.396;2024-03-02T00:59:02;97230.25;;;5.07;100.00
48563;BME280;34981;49.104;11.396;2024-03-02T01:01:29;97254.22;;;5.07;100.00
48563;BME280;34981;49.104;11.396;2024-03-02T01:03:56;97278.41;;;5.06;100.00
48563;BME280;34981;49.104;11.396;2024-03-02T01:06:24;97294.81;;;5.03;100.00
48563;BME280;34981;49.104;11.396;2024-03-02T01:08:51;97313.06;;;4.99;100.00
48563;BME280;34981;49.104;11.396;2024-03-02T01:11:19;97345.03;;;4.99;100.00
48563;BME280;34981;49.104;11.396;2024-03-02T01:13:50;97374.34;;;4.99;100.00
48563;BME280;34981;49.104;11.396;2024-03-02T01:16:17;97404.66;;;4.98;100.00
48563;BME280;34981;49.104;11.396;2024-03-02T01:18:44;97430.72;;;4.96;100.00
48563;BME280;34981;49.104;11.396;2024-03-02T01:21:11;97461.88;;;4.96;100.00
48563;BME280;34981;49.104;11.396;2024-03-02T01:23:39;97484.41;;;4.93;100.00
48563;BME280;34981;49.104;11.396;2024-03-02T01:26:06;97511.88;;;4.94;100.00
48563;BME280;34981;49.104;11.396;2024-03-02T01:28:34;97541.19;;;4.94;100.00
48563;BME280;34981;49.104;11.396;2024-03-02T01:31:01;97556.13;;;4.88;100.00
48563;BME280;34981;49.104;11.396;2024-03-02T01:33:29;97589.75;;;4.89;100.00
48563;BME280;34981;49.104;11.396;2024-03-02T01:35:56;97612.91;;;4.89;100.00
48563;BME280;34981;49.104;11.396;2024-03-02T01:38:23;97640.16;;;4.91;100.00
48563;BME280;34981;49.104;11.396;2024-03-02T01:40:50;97669.47;;;4.91;100.00
48563;BME280;34981;49.104;11.396;2024-03-02T01:43:18;97688.13;;;4.91;100.00
48563;BME280;34981;49.104;11.396;2024-03-02T01:45:45;97720.72;;;4.93;100.00
48563;BME280;34981;49.104;11.396;2024-03-02T01:48:13;97742.22;;;4.91;100.00
48563;BME280;34981;49.104;11.396;2024-03-02T01:50:40;97756.97;;;4.87;100.00
48563;BME280;34981;49.104;11.396;2024-03-02T01:53:07;97783.44;;;4.89;100.00
48563;BME280;34981;49.104;11.396;2024-03-02T01:55:35;97804.66;;;4.82;100.00
48563;BME280;34981;49.104;11.396;2024-03-02T01:58:02;97825.53;;;4.79;100.00
48563;BME280;34981;49.104;11.396;2024-03-02T02:00:30;97856.66;;;4.78;100.00
48563;BME280;34981;49.104;11.396;2024-03-02T02:02:57;97878.81;;;4.79;100.00
48563;BME280;34981;49.104;11.396;2024-03-02T02:05:25;97904.28;;;4.81;100.00
48563;BME280;34981;49.104;11.396;2024-03-02T02:07:52;97933.75;;;4.80;100.00
48563;BME280;34981;49.104;11.396;2024-03-02T02:10:19;97945.25;;;4.80;100.00
48563;BME280;34981;49.104;11.396;2024-03-02T02:12:46;97967.38;;;4.81;100.00
48563;BME280;34981;49.104;11.396;2024-03-02T02:15:23;97977.41;;;4.79;100.00
48563;BME280;34981;49.104;11.396;2024-03-02T02:17:50;97996.88;;;4.79;100.00
48563;BME280;34981;49.104;11.396;2024-03-02T02:20:18;98009.38;;;4.79;100.00
48563;BME280;34981;49.104;11.396;2024-03-02T02:22:59;98030.19;;;4.75;100.00
48563;BME280;34981;49.104;11.396;2024-03-02T02:25:26;98056.66;;;4.77;100.00
48563;BME280;34981;49.104;11.396;2024-03-02T02:27:54;98070.38;;;4.74;100.00
48563;BME280;34981;49.104;11.396;2024-03-02T02:30:24;98081.19;;;4.72;100.00
48563;BME280;34981;49.104;11.396;2024-03-02T02:32:52;98093.69;;;4.72;100.00
48563;BME280;34981;49.104;11.396;2024-03-02T02:35:19;98095.34;;;4.73;100.00
48563;BME280;34981;49.104;11.396;2024-03-02T02:37:46;98039.41;;;4.73;100.00
48563;BME280;34981;49.104;11.396;2024-03-02T02:40:14;98037.56;;;4.73;100.00
48563;BME280;34981;49.104;11.396;2024-03-02T02:42:41;98029.47;;;4.66;100.00
48563;BME280;34981;49.104;11.396;2024-03-02T02:45:08;98041.13;;;4.65;100.00
48563;BME280;34981;49.104;11.396;2024-03-02T02:47:35;98046.47;;;4.65;100.00
48563;BME280;34981;49.104;11.396;2024-03-02T02:50:03;98064.94;;;4.67;100.00
48563;BME280;34981;49.104;11.396;2024-03-02T02:52:34;98083.38;;;4.68;100.00
48563;BME280;34981;49.104;11.396;2024-03-02T02:57:45;98118.84;;;4.69;100.00
48563;BME280;34981;49.104;11.396;2024-03-02T03:00:15;98140.00;;;4.70;100.00
48563;BME280;34981;49.104;11.396;2024-03-02T03:02:48;98142.66;;;4.70;100.00
48563;BME280;34981;49.104;11.396;2024-03-02T03:05:17;98157.81;;;4.70;100.00
48563;BME280;34981;49.104;11.396;2024-03-02T03:07:45;98161.47;;;4.69;100.00
48563;BME280;34981;49.104;11.396;2024-03-02T03:10:12;98179.28;;;4.68;100.00
48563;BME280;34981;49.104;11.396;2024-03-02T03:12:41;98187.28;;;4.68;100.00
48563;BME280;34981;49.104;11.396;2024-03-02T03:15:10;98200.81;;;4.67;100.00
48563;BME280;34981;49.104;11.396;2024-03-02T03:17:38;98215.97;;;4.66;100.00
48563;BME280;34981;49.104;11.396;2024-03-02T03:20:05;98227.44;;;4.67;100.00
48563;BME280;34981;49.104;11.396;2024-03-02T03:22:37;98241.78;;;4.66;100.00
48563;BME280;34981;49.104;11.396;2024-03-02T03:25:04;98257.75;;;4.66;100.00
48563;BME280;34981;49.104;11.396;2024-03-02T03:27:31;98264.91;;;4.65;100.00
48563;BME280;34981;49.104;11.396;2024-03-02T03:29:59;98279.41;;;4.63;100.00
48563;BME280;34981;49.104;11.396;2024-03-02T03:32:26;98295.75;;;4.60;100.00
48563;BME280;34981;49.104;11.396;2024-03-02T03:34:53;98297.25;;;4.54;100.00
48563;BME280;34981;49.104;11.396;2024-03-02T03:37:20;98311.94;;;4.50;100.00
48563;BME280;34981;49.104;11.396;2024-03-02T03:39:48;98328.91;;;4.49;100.00
48563;BME280;34981;49.104;11.396;2024-03-02T03:42:15;98350.06;;;4.51;100.00
48563;BME280;34981;49.104;11.396;2024-03-02T03:44:42;98360.72;;;4.51;100.00
48563;BME280;34981;49.104;11.396;2024-03-02T03:47:09;98374.69;;;4.53;100.00
48563;BME280;34981;49.104;11.396;2024-03-02T03:49:36;98382.50;;;4.54;100.00
48563;BME280;34981;49.104;11.396;2024-03-02T03:52:03;98393.16;;;4.54;100.00
48563;BME280;34981;49.104;11.396;2024-03-02T03:54:31;98401.13;;;4.54;100.00
48563;BME280;34981;49.104;11.396;2024-03-02T03:56:58;98415.44;;;4.53;100.00
48563;BME280;34981;49.104;11.396;2024-03-02T03:59:25;98425.47;;;4.51;100.00
48563;BME280;34981;49.104;11.396;2024-03-02T04:01:52;98451.28;;;4.51;100.00
48563;BME280;34981;49.104;11.396;2024-03-02T04:04:20;98461.09;;;4.50;100.00
48563;BME280;34981;49.104;11.396;2024-03-02T04:06:47;98477.06;;;4.50;100.00
48563;BME280;34981;49.104;11.396;2024-03-02T04:09:14;98485.72;;;4.52;100.00
48563;BME280;34981;49.104;11.396;2024-03-02T04:11:41;98498.84;;;4.54;100.00
48563;BME280;34981;49.104;11.396;2024-03-02T04:14:08;98510.34;;;4.54;100.00
48563;BME280;34981;49.104;11.396;2024-03-02T04:16:35;98527.00;;;4.56;100.00
48563;BME280;34981;49.104;11.396;2024-03-02T04:19:03;98547.31;;;4.57;100.00
48563;BME280;34981;49.104;11.396;2024-03-02T04:21:31;98556.81;;;4.60;100.00
48563;BME280;34981;49.104;11.396;2024-03-02T04:23:58;98574.63;;;4.59;100.00
48563;BME280;34981;49.104;11.396;2024-03-02T04:26:26;98589.59;;;4.60;100.00
48563;BME280;34981;49.104;11.396;2024-03-02T04:28:53;98599.25;;;4.61;100.00
48563;BME280;34981;49.104;11.396;2024-03-02T04:31:21;98615.06;;;4.63;100.00
48563;BME280;34981;49.104;11.396;2024-03-02T04:33:48;98622.91;;;4.64;100.00
48563;BME280;34981;49.104;11.396;2024-03-02T04:36:15;98645.88;;;4.65;100.00
48563;BME280;34981;49.104;11.396;2024-03-02T04:38:43;98663.53;;;4.66;100.00
48563;BME280;34981;49.104;11.396;2024-03-02T04:41:10;98677.69;;;4.67;100.00
48563;BME280;34981;49.104;11.396;2024-03-02T04:43:37;98700.84;;;4.66;100.00
48563;BME280;34981;49.104;11.396;2024-03-02T04:46:04;98712.34;;;4.67;100.00
48563;BME280;34981;49.104;11.396;2024-03-02T04:48:32;98731.97;;;4.66;100.00
48563;BME280;34981;49.104;11.396;2024-03-02T04:50:59;98742.47;;;4.67;100.00
48563;BME280;34981;49.104;11.396;2024-03-02T04:53:26;98757.28;;;4.70;100.00
48563;BME280;34981;49.104;11.396;2024-03-02T04:55:53;98775.44;;;4.66;100.00
48563;BME280;34981;49.104;11.396;2024-03-02T04:58:39;98805.41;;;4.68;100.00
48563;BME280;34981;49.104;11.396;2024-03-02T05:01:06;98833.22;;;4.66;100.00
48563;BME280;34981;49.104;11.396;2024-03-02T05:03:33;98859.72;;;4.67;100.00
48563;BME280;34981;49.104;11.396;2024-03-02T05:06:01;98877.69;;;4.65;100.00
48563;BME280;34981;49.104;11.396;2024-03-02T05:08:29;98905.31;;;4.64;100.00
48563;BME280;34981;49.104;11.396;2024-03-02T05:10:56;98934.63;;;4.64;100.00
48563;BME280;34981;49.104;11.396;2024-03-02T05:13:43;98964.63;;;4.66;100.00
48563;BME280;34981;49.104;11.396;2024-03-02T05:16:10;98994.78;;;4.67;100.00
48563;BME280;34981;49.104;11.396;2024-03-02T05:18:38;99016.91;;;4.67;100.00
48563;BME280;34981;49.104;11.396;2024-03-02T05:21:05;99048.91;;;4.67;100.00
48563;BME280;34981;49.104;11.396;2024-03-02T05:23:32;99074.53;;;4.68;100.00
48563;BME280;34981;49.104;11.396;2024-03-02T05:26:00;99107.34;;;4.69;100.00
48563;BME280;34981;49.104;11.396;2024-03-02T05:28:27;99123.31;;;4.69;100.00
48563;BME280;34981;49.104;11.396;2024-03-02T05:30:54;99155.16;;;4.70;100.00
48563;BME280;34981;49.104;11.396;2024-03-02T05:33:21;99177.31;;;4.71;100.00
48563;BME280;34981;49.104;11.396;2024-03-02T05:35:49;99197.66;;;4.72;100.00
48563;BME280;34981;49.104;11.396;2024-03-02T05:38:17;99216.31;;;4.72;100.00
48563;BME280;34981;49.104;11.396;2024-03-02T05:40:44;99242.81;;;4.74;100.00
48563;BME280;34981;49.104;11.396;2024-03-02T05:43:11;99273.81;;;4.75;100.00
48563;BME280;34981;49.104;11.396;2024-03-02T05:45:38;99305.78;;;4.75;100.00
48563;BME280;34981;49.104;11.396;2024-03-02T05:48:07;99330.56;;;4.75;100.00
48563;BME280;34981;49.104;11.396;2024-03-02T05:50:34;99352.91;;;4.74;100.00
48563;BME280;34981;49.104;11.396;2024-03-02T05:53:02;99379.72;;;4.73;100.00
48563;BME280;34981;49.104;11.396;2024-03-02T05:55:29;99418.53;;;4.75;100.00
48563;BME280;34981;49.104;11.396;2024-03-02T05:57:56;99428.38;;;4.75;100.00
48563;BME280;34981;49.104;11.396;2024-03-02T06:00:44;99445.19;;;4.75;100.00
48563;BME280;34981;49.104;11.396;2024-03-02T06:03:11;99413.19;;;4.75;100.00
48563;BME280;34981;49.104;11.396;2024-03-02T06:05:38;99443.34;;;4.76;100.00
48563;BME280;34981;49.104;11.396;2024-03-02T06:08:06;99460.38;;;4.75;100.00
48563;BME280;34981;49.104;11.396;2024-03-02T06:10:33;99482.66;;;4.74;100.00
48563;BME280;34981;49.104;11.396;2024-03-02T06:13:00;99510.28;;;4.73;100.00
48563;BME280;34981;49.104;11.396;2024-03-02T06:15:27;99550.28;;;4.73;100.00
48563;BME280;34981;49.104;11.396;2024-03-02T06:17:54;99573.28;;;4.74;100.00
48563;BME280;34981;49.104;11.396;2024-03-02T06:20:21;99599.22;;;4.72;100.00
48563;BME280;34981;49.104;11.396;2024-03-02T06:22:48;99621.53;;;4.70;100.00
48563;BME280;34981;49.104;11.396;2024-03-02T06:25:16;99653.38;;;4.72;100.00
48563;BME280;34981;49.104;11.396;2024-03-02T06:27:43;99681.84;;;4.72;100.00
48563;BME280;34981;49.104;11.396;2024-03-02T06:30:10;99714.53;;;4.74;100.00
48563;BME280;34981;49.104;11.396;2024-03-02T06:32:37;99742.16;;;4.73;100.00
48563;BME280;34981;49.104;11.396;2024-03-02T06:35:05;99780.19;;;4.75;100.00
48563;BME280;34981;49.104;11.396;2024-03-02T06:37:34;99815.53;;;4.77;100.00
48563;BME280;34981;49.104;11.396;2024-03-02T06:40:01;99844.00;;;4.76;100.00
48563;BME280;34981;49.104;11.396;2024-03-02T06:42:29;99874.88;;;4.79;100.00
48563;BME280;34981;49.104;11.396;2024-03-02T06:45:01;99906.75;;;4.80;100.00
48563;BME280;34981;49.104;11.396;2024-03-02T06:47:28;99940.69;;;4.78;100.00
48563;BME280;34981;49.104;11.396;2024-03-02T06:49:55;99992.91;;;4.81;100.00
48563;BME280;34981;49.104;11.396;2024-03-02T06:52:24;100025.44;;;4.84;100.00
48563;BME280;34981;49.104;11.396;2024-03-02T06:54:51;100068.81;;;4.86;100.00
48563;BME280;34981;49.104;11.396;2024-03-02T06:57:18;100106.03;;;4.88;100.00
48563;BME280;34981;49.104;11.396;2024-03-02T06:59:47;100148.41;;;4.91;100.00
48563;BME280;34981;49.104;11.396;2024-03-02T07:02:17;100194.06;;;4.97;100.00
48563;BME280;34981;49.104;11.396;2024-03-02T07:04:44;100235.63;;;5.00;100.00
48563;BME280;34981;49.104;11.396;2024-03-02T07:07:12;100277.06;;;5.04;100.00
48563;BME280;34981;49.104;11.396;2024-03-02T07:09:39;100318.63;;;5.06;100.00
48563;BME280;34981;49.104;11.396;2024-03-02T07:12:07;100360.22;;;5.09;100.00
48563;BME280;34981;49.104;11.396;2024-03-02T07:14:34;100407.94;;;5.12;100.00
48563;BME280;34981;49.104;11.396;2024-03-02T07:17:24;100433.41;;;5.16;100.00
48563;BME280;34981;49.104;11.396;2024-03-02T07:19:53;100481.31;;;5.18;100.00
48563;BME280;34981;49.104;11.396;2024-03-02T07:22:20;100515.84;;;5.19;100.00
48563;BME280;34981;49.104;11.396;2024-03-02T07:24:48;100553.81;;;5.23;100.00
48563;BME280;34981;49.104;11.396;2024-03-02T07:27:16;100591.66;;;5.28;100.00
48563;BME280;34981;49.104;11.396;2024-03-02T07:29:43;100640.28;;;5.31;100.00
48563;BME280;34981;49.104;11.396;2024-03-02T07:32:10;100667.81;;;5.32;100.00
48563;BME280;34981;49.104;11.396;2024-03-02T07:34:38;100725.94;;;5.39;100.00
48563;BME280;34981;49.104;11.396;2024-03-02T07:37:05;100754.06;;;5.43;100.00
48563;BME280;34981;49.104;11.396;2024-03-02T07:39:32;100790.47;;;5.44;100.00
48563;BME280;34981;49.104;11.396;2024-03-02T07:42:00;100820.44;;;5.48;100.00
48563;BME280;34981;49.104;11.396;2024-03-02T07:44:27;100867.19;;;5.54;100.00
48563;BME280;34981;49.104;11.396;2024-03-02T07:46:54;100891.09;;;5.55;100.00
48563;BME280;34981;49.104;11.396;2024-03-02T07:49:21;100954.56;;;5.63;100.00
48563;BME280;34981;49.104;11.396;2024-03-02T07:51:48;100989.06;;;5.66;100.00
48563;BME280;34981;49.104;11.396;2024-03-02T07:54:16;101021.84;;;5.68;100.00
48563;BME280;34981;49.104;11.396;2024-03-02T07:56:43;101046.84;;;5.67;100.00
48563;BME280;34981;49.104;11.396;2024-03-02T07:59:10;101071.09;;;5.64;100.00
48563;BME280;34981;49.104;11.396;2024-03-02T08:01:37;101143.03;;;5.78;100.00
48563;BME280;34981;49.104;11.396;2024-03-02T08:04:04;101189.94;;;5.82;100.00
48563;BME280;34981;49.104;11.396;2024-03-02T08:06:31;101207.66;;;5.83;100.00
48563;BME280;34981;49.104;11.396;2024-03-02T08:08:59;101231.47;;;5.86;100.00
48563;BME280;34981;49.104;11.396;2024-03-02T08:11:27;101245.41;;;5.91;100.00
48563;BME280;34981;49.104;11.396;2024-03-02T08:13:54;101302.22;;;6.06;100.00
48563;BME280;34981;49.104;11.396;2024-03-02T08:16:24;101297.41;;;5.98;100.00
48563;BME280;34981;49.104;11.396;2024-03-02T08:18:52;101299.53;;;6.06;100.00
48563;BME280;34981;49.104;11.396;2024-03-02T08:21:19;101358.31;;;6.18;100.00
48563;BME280;34981;49.104;11.396;2024-03-02T08:23:47;101356.59;;;6.17;100.00
48563;BME280;34981;49.104;11.396;2024-03-02T08:26:14;101376.56;;;6.24;100.00
48563;BME280;34981;49.104;11.396;2024-03-02T08:28:41;101423.09;;;6.35;100.00
48563;BME280;34981;49.104;11.396;2024-03-02T08:31:09;101460.59;;;6.46;100.00
48563;BME280;34981;49.104;11.396;2024-03-02T08:33:36;101402.41;;;6.37;100.00
48563;BME280;34981;49.104;11.396;2024-03-02T08:36:05;101340.63;;;6.29;100.00
48563;BME280;34981;49.104;11.396;2024-03-02T08:38:32;101417.34;;;6.52;100.00
48563;BME280;34981;49.104;11.396;2024-03-02T08:40:59;101384.97;;;6.56;100.00
48563;BME280;34981;49.104;11.396;2024-03-02T08:43:27;101367.72;;;6.60;100.00
48563;BME280;34981;49.104;11.396;2024-03-02T08:45:54;101314.56;;;6.56;100.00
48563;BME280;34981;49.104;11.396;2024-03-02T08:48:21;101271.78;;;6.56;100.00
48563;BME280;34981;49.104;11.396;2024-03-02T08:50:48;101238.59;;;6.58;100.00
48563;BME280;34981;49.104;11.396;2024-03-02T08:53:15;101190.59;;;6.57;100.00
48563;BME280;34981;49.104;11.396;2024-03-02T08:55:46;101118.84;;;6.51;100.00
48563;BME280;34981;49.104;11.396;2024-03-02T08:58:13;101061.72;;;6.41;100.00
48563;BME280;34981;49.104;11.396;2024-03-02T09:00:40;101061.84;;;6.50;100.00
48563;BME280;34981;49.104;11.396;2024-03-02T09:03:08;100983.22;;;6.42;100.00
48563;BME280;34981;49.104;11.396;2024-03-02T09:05:35;100971.56;;;6.43;100.00
48563;BME280;34981;49.104;11.396;2024-03-02T09:08:02;100867.03;;;6.23;100.00
48563;BME280;34981;49.104;11.396;2024-03-02T09:10:30;100881.88;;;6.39;100.00
48563;BME280;34981;49.104;11.396;2024-03-02T09:12:58;100882.56;;;6.52;100.00
48563;BME280;34981;49.104;11.396;2024-03-02T09:15:25;100827.78;;;6.46;100.00
48563;BME280;34981;49.104;11.396;2024-03-02T09:17:52;100819.88;;;6.56;100.00
48563;BME280;34981;49.104;11.396;2024-03-02T09:20:20;100721.09;;;6.43;100.00
48563;BME280;34981;49.104;11.396;2024-03-02T09:22:47;100750.41;;;6.65;100.00
48563;BME280;34981;49.104;11.396;2024-03-02T09:25:15;100653.38;;;6.54;100.00
48563;BME280;34981;49.104;11.396;2024-03-02T09:27:43;100545.31;;;6.36;100.00
48563;BME280;34981;49.104;11.396;2024-03-02T09:30:10;100531.16;;;6.45;100.00
48563;BME280;34981;49.104;11.396;2024-03-02T09:32:38;100527.44;;;6.57;100.00
48563;BME280;34981;49.104;11.396;2024-03-02T09:35:05;100511.56;;;6.65;100.00
48563;BME280;34981;49.104;11.396;2024-03-02T09:37:32;100384.69;;;6.39;100.00
48563;BME280;34981;49.104;11.396;2024-03-02T09:39:59;100282.38;;;6.27;100.00
48563;BME280;34981;49.104;11.396;2024-03-02T09:42:27;100284.69;;;6.41;100.00
48563;BME280;34981;49.104;11.396;2024-03-02T09:44:54;100247.81;;;6.45;100.00
48563;BME280;34981;49.104;11.396;2024-03-02T09:47:21;100198.00;;;6.44;100.00
48563;BME280;34981;49.104;11.396;2024-03-02T09:49:49;100176.09;;;6.50;100.00
48563;BME280;34981;49.104;11.396;2024-03-02T09:52:16;100092.81;;;6.35;100.00
48563;BME280;34981;49.104;11.396;2024-03-02T09:54:43;100057.88;;;6.37;100.00
48563;BME280;34981;49.104;11.396;2024-03-02T09:57:10;100073.06;;;6.55;100.00
48563;BME280;34981;49.104;11.396;2024-03-02T09:59:37;100082.75;;;6.76;100.00
48563;BME280;34981;49.104;11.396;2024-03-02T10:02:04;100014.91;;;6.67;100.00
48563;BME280;34981;49.104;11.396;2024-03-02T10:04:34;99985.09;;;6.72;100.00
48563;BME280;34981;49.104;11.396;2024-03-02T10:07:12;99912.53;;;6.57;100.00
48563;BME280;34981;49.104;11.396;2024-03-02T10:09:40;99856.53;;;6.55;100.00
48563;BME280;34981;49.104;11.396;2024-03-02T10:12:09;99810.94;;;6.57;100.00
48563;BME280;34981;49.104;11.396;2024-03-02T10:14:36;99749.19;;;6.50;100.00
48563;BME280;34981;49.104;11.396;2024-03-02T10:17:04;99749.78;;;6.72;100.00
48563;BME280;34981;49.104;11.396;2024-03-02T10:19:32;99715.25;;;6.78;100.00
48563;BME280;34981;49.104;11.396;2024-03-02T10:22:02;99687.94;;;6.92;100.00
48563;BME280;34981;49.104;11.396;2024-03-02T10:24:37;99617.66;;;6.82;100.00
48563;BME280;34981;49.104;11.396;2024-03-02T10:27:09;99570.91;;;6.86;100.00
48563;BME280;34981;49.104;11.396;2024-03-02T10:29:37;99485.72;;;6.74;100.00
48563;BME280;34981;49.104;11.396;2024-03-02T10:32:04;99443.50;;;6.77;100.00
48563;BME280;34981;49.104;11.396;2024-03-02T10:34:33;99369.53;;;6.60;100.00
48563;BME280;34981;49.104;11.396;2024-03-02T10:37:00;99300.81;;;6.44;100.00
48563;BME280;34981;49.104;11.396;2024-03-02T10:39:30;99299.72;;;6.63;100.00
48563;BME280;34981;49.104;11.396;2024-03-02T10:41:58;99223.81;;;6.40;100.00
48563;BME280;34981;49.104;11.396;2024-03-02T10:44:25;99218.03;;;6.60;100.00
48563;BME280;34981;49.104;11.396;2024-03-02T10:46:53;99162.88;;;6.51;100.00
48563;BME280;34981;49.104;11.396;2024-03-02T10:49:21;99157.06;;;6.64;100.00
48563;BME280;34981;49.104;11.396;2024-03-02T10:51:49;99100.25;;;6.54;100.00
48563;BME280;34981;49.104;11.396;2024-03-02T10:54:16;99057.66;;;6.52;100.00
48563;BME280;34981;49.104;11.396;2024-03-02T10:56:45;98991.38;;;6.32;100.00
48563;BME280;34981;49.104;11.396;2024-03-02T10:59:30;98979.16;;;6.37;100.00
48563;BME280;34981;49.104;11.396;2024-03-02T11:02:00;98912.06;;;6.24;100.00
48563;BME280;34981;49.104;11.396;2024-03-02T11:04:32;98882.53;;;6.17;100.00
48563;BME280;34981;49.104;11.396;2024-03-02T11:07:00;98884.34;;;6.25;100.00
48563;BME280;34981;49.104;11.396;2024-03-02T11:09:28;98817.28;;;6.04;100.00
48563;BME280;34981;49.104;11.396;2024-03-02T11:12:03;98809.44;;;6.10;100.00
48563;BME280;34981;49.104;11.396;2024-03-02T11:14:33;98782.72;;;6.10;100.00
48563;BME280;34981;49.104;11.396;2024-03-02T11:17:02;98782.69;;;6.27;100.00
48563;BME280;34981;49.104;11.396;2024-03-02T11:19:30;98779.28;;;6.41;100.00
48563;BME280;34981;49.104;11.396;2024-03-02T11:21:58;98716.22;;;6.23;100.00
48563;BME280;34981;49.104;11.396;2024-03-02T11:27:06;98684.63;;;6.35;100.00
48563;BME280;34981;49.104;11.396;2024-03-02T11:32:14;98613.22;;;6.21;100.00
48563;BME280;34981;49.104;11.396;2024-03-02T11:34:45;98612.41;;;6.43;100.00
48563;BME280;34981;49.104;11.396;2024-03-02T11:37:19;98548.31;;;6.20;100.00
48563;BME280;34981;49.104;11.396;2024-03-02T11:39:50;98530.25;;;6.22;100.00
48563;BME280;34981;49.104;11.396;2024-03-02T11:42:18;98501.44;;;6.18;100.00
48563;BME280;34981;49.104;11.396;2024-03-02T11:44:46;98464.66;;;6.05;100.00
48563;BME280;34981;49.104;11.396;2024-03-02T11:47:16;98442.47;;;6.05;100.00
48563;BME280;34981;49.104;11.396;2024-03-02T11:49:45;98434.75;;;6.24;100.00
48563;BME280;34981;49.104;11.396;2024-03-02T11:52:13;98434.06;;;6.45;100.00
48563;BME280;34981;49.104;11.396;2024-03-02T11:54:42;98404.13;;;6.50;100.00
48563;BME280;34981;49.104;11.396;2024-03-02T11:57:19;98339.09;;;6.28;100.00
48563;BME280;34981;49.104;11.396;2024-03-02T11:59:46;98335.75;;;6.41;100.00
48563;BME280;34981;49.104;11.396;2024-03-02T12:02:14;98305.72;;;6.39;100.00
48563;BME280;34981;49.104;11.396;2024-03-02T12:04:43;98264.63;;;6.40;100.00
48563;BME280;34981;49.104;11.396;2024-03-02T12:07:10;98263.53;;;6.49;100.00
48563;BME280;34981;49.104;11.396;2024-03-02T12:09:38;98243.88;;;6.56;100.00
48563;BME280;34981;49.104;11.396;2024-03-02T12:12:06;98213.84;;;6.54;100.00
48563;BME280;34981;49.104;11.396;2024-03-02T12:14:33;98185.56;;;6.45;100.00
48563;BME280;34981;49.104;11.396;2024-03-02T12:17:01;98186.81;;;6.64;100.00
48563;BME280;34981;49.104;11.396;2024-03-02T12:19:29;98160.09;;;6.64;100.00
48563;BME280;34981;49.104;11.396;2024-03-02T12:21:57;98127.13;;;6.57;100.00
48563;BME280;34981;49.104;11.396;2024-03-02T12:24:26;98117.19;;;6.51;100.00
48563;BME280;34981;49.104;11.396;2024-03-02T12:26:53;98096.69;;;6.58;100.00
48563;BME280;34981;49.104;11.396;2024-03-02T12:29:21;98084.81;;;6.60;100.00
48563;BME280;34981;49.104;11.396;2024-03-02T12:31:48;98045.44;;;6.48;100.00
48563;BME280;34981;49.104;11.396;2024-03-02T12:34:16;98015.81;;;6.43;100.00
48563;BME280;34981;49.104;11.396;2024-03-02T12:36:45;98022.53;;;6.60;100.00
48563;BME280;34981;49.104;11.396;2024-03-02T12:39:14;98013.34;;;6.69;100.00
48563;BME280;34981;49.104;11.396;2024-03-02T12:41:42;97974.28;;;6.68;100.00
48563;BME280;34981;49.104;11.396;2024-03-02T12:44:09;97947.31;;;6.63;100.00
48563;BME280;34981;49.104;11.396;2024-03-02T12:46:37;97942.59;;;6.65;100.00
48563;BME280;34981;49.104;11.396;2024-03-02T12:49:05;97934.44;;;6.80;100.00
48563;BME280;34981;49.104;11.396;2024-03-02T12:51:34;97902.34;;;6.73;100.00
48563;BME280;34981;49.104;11.396;2024-03-02T12:54:02;97871.88;;;6.61;100.00
48563;BME280;34981;49.104;11.396;2024-03-02T12:56:30;97862.81;;;6.62;100.00
48563;BME280;34981;49.104;11.396;2024-03-02T12:58:58;97851.34;;;6.68;100.00
48563;BME280;34981;49.104;11.396;2024-03-02T13:01:25;97843.63;;;6.86;100.00
48563;BME280;34981;49.104;11.396;2024-03-02T13:03:53;97823.00;;;6.80;100.00